N513MA KFLL-MBPV
Flight info
| Callsign | N513MA |
|---|---|
| Flight time | N/A |
| Altitude | 45000 |
| Route | SNAPR2 SUMAC DCT SOLEI |
| Aircraft | GLF4/M-SFGHIRWXY/S |
Departure
| Time | 2026-05-04 00:04 |
|---|---|
| Airport | Fort Lauderdale Hollywood International Airport (KFLL) |
Arrival
| Time | N/A |
|---|---|
| Airport | Providenciales International Airport (MBPV) |
| Time | Latitude | Longitude | Altitude | Speed | Heading |
|---|---|---|---|---|---|
| 2026-05-03 22:55 | 26.07298 | -80.15625 | 11 ft | 0 kts | 136° |
| 2026-05-03 22:59 | 26.07295 | -80.15622 | 11 ft | 1 kts | 135° |
| 2026-05-03 22:59 | 26.07289 | -80.15614 | 11 ft | 1 kts | 134° |
| 2026-05-03 23:00 | 26.07279 | -80.15604 | 11 ft | 2 kts | 133° |
| 2026-05-03 23:00 | 26.07275 | -80.15599 | 11 ft | 0 kts | 133° |
| 2026-05-03 23:01 | 26.07269 | -80.15592 | 11 ft | 2 kts | 131° |
| 2026-05-03 23:01 | 26.07265 | -80.15586 | 11 ft | 0 kts | 131° |
| 2026-05-03 23:02 | 26.07261 | -80.15569 | 11 ft | 5 kts | 64° |
| 2026-05-03 23:02 | 26.07311 | -80.15576 | 11 ft | 11 kts | 320° |
| 2026-05-03 23:03 | 26.07378 | -80.15649 | 11 ft | 15 kts | 318° |
| 2026-05-03 23:03 | 26.07440 | -80.15717 | 11 ft | 10 kts | 315° |
| 2026-05-03 23:03 | 26.07479 | -80.15763 | 11 ft | 7 kts | 300° |
| 2026-05-03 23:03 | 26.07492 | -80.15807 | 11 ft | 4 kts | 280° |
| 2026-05-03 23:04 | 26.07494 | -80.15832 | 11 ft | 2 kts | 270° |
| 2026-05-03 23:04 | 26.07494 | -80.15837 | 11 ft | 0 kts | 270° |
| 2026-05-03 23:04 | 26.07494 | -80.15842 | 11 ft | 1 kts | 270° |
| 2026-05-03 23:05 | 26.07494 | -80.15866 | 11 ft | 5 kts | 270° |
| 2026-05-03 23:05 | 26.07494 | -80.15897 | 11 ft | 1 kts | 270° |
| 2026-05-03 23:05 | 26.07494 | -80.15898 | 11 ft | 0 kts | 270° |
| 2026-05-03 23:08 | 26.07494 | -80.15899 | 11 ft | 0 kts | 270° |
| 2026-05-03 23:08 | 26.07494 | -80.15919 | 11 ft | 6 kts | 270° |
| 2026-05-03 23:09 | 26.07496 | -80.15984 | 11 ft | 9 kts | 270° |
| 2026-05-03 23:09 | 26.07496 | -80.15993 | 11 ft | 0 kts | 269° |
| 2026-05-03 23:12 | 26.07496 | -80.15994 | 11 ft | 0 kts | 268° |
| 2026-05-03 23:12 | 26.07496 | -80.15997 | 11 ft | 0 kts | 268° |
| 2026-05-03 23:13 | 26.07496 | -80.15998 | 11 ft | 1 kts | 268° |
| 2026-05-03 23:13 | 26.07495 | -80.16013 | 11 ft | 0 kts | 268° |
| 2026-05-03 23:13 | 26.07495 | -80.16015 | 11 ft | 0 kts | 269° |
| 2026-05-03 23:15 | 26.07495 | -80.16018 | 11 ft | 1 kts | 268° |
| 2026-05-03 23:15 | 26.07495 | -80.16046 | 11 ft | 5 kts | 269° |
| 2026-05-03 23:15 | 26.07495 | -80.16090 | 11 ft | 4 kts | 271° |
| 2026-05-03 23:15 | 26.07495 | -80.16110 | 11 ft | 0 kts | 271° |
| 2026-05-03 23:16 | 26.07495 | -80.16132 | 11 ft | 5 kts | 270° |
| 2026-05-03 23:16 | 26.07495 | -80.16177 | 11 ft | 5 kts | 270° |
| 2026-05-03 23:16 | 26.07496 | -80.16198 | 11 ft | 0 kts | 272° |
| 2026-05-03 23:18 | 26.07496 | -80.16209 | 11 ft | 3 kts | 271° |
| 2026-05-03 23:18 | 26.07497 | -80.16222 | 11 ft | 0 kts | 273° |
| 2026-05-03 23:34 | 26.07497 | -80.16226 | 11 ft | 2 kts | 272° |
| 2026-05-03 23:34 | 26.07497 | -80.16251 | 11 ft | 2 kts | 269° |
| 2026-05-03 23:34 | 26.07497 | -80.16262 | 11 ft | 0 kts | 268° |
| 2026-05-03 23:35 | 26.07497 | -80.16264 | 11 ft | 0 kts | 268° |
| 2026-05-03 23:35 | 26.07497 | -80.16269 | 11 ft | 1 kts | 267° |
| 2026-05-03 23:35 | 26.07496 | -80.16287 | 11 ft | 3 kts | 267° |
| 2026-05-03 23:36 | 26.07496 | -80.16298 | 11 ft | 0 kts | 268° |
| 2026-05-03 23:42 | 26.07495 | -80.16302 | 11 ft | 1 kts | 267° |
| 2026-05-03 23:42 | 26.07495 | -80.16318 | 11 ft | 3 kts | 271° |
| 2026-05-03 23:43 | 26.07496 | -80.16353 | 11 ft | 4 kts | 271° |
| 2026-05-03 23:43 | 26.07496 | -80.16372 | 11 ft | 1 kts | 270° |
| 2026-05-03 23:43 | 26.07496 | -80.16373 | 11 ft | 0 kts | 270° |
| 2026-05-03 23:44 | 26.07496 | -80.16378 | 11 ft | 2 kts | 269° |
| 2026-05-03 23:44 | 26.07496 | -80.16389 | 11 ft | 0 kts | 271° |
| 2026-05-03 23:46 | 26.07496 | -80.16390 | 11 ft | 0 kts | 271° |
| 2026-05-03 23:46 | 26.07497 | -80.16396 | 11 ft | 2 kts | 270° |
| 2026-05-03 23:47 | 26.07496 | -80.16416 | 11 ft | 2 kts | 269° |
| 2026-05-03 23:47 | 26.07496 | -80.16434 | 11 ft | 2 kts | 268° |
| 2026-05-03 23:47 | 26.07496 | -80.16450 | 11 ft | 2 kts | 272° |
| 2026-05-03 23:47 | 26.07496 | -80.16465 | 11 ft | 0 kts | 271° |
| 2026-05-03 23:51 | 26.07496 | -80.16466 | 11 ft | 0 kts | 271° |
| 2026-05-03 23:51 | 26.07497 | -80.16486 | 11 ft | 3 kts | 270° |
| 2026-05-03 23:51 | 26.07497 | -80.16495 | 11 ft | 0 kts | 271° |
| 2026-05-03 23:52 | 26.07497 | -80.16499 | 11 ft | 1 kts | 270° |
| 2026-05-03 23:52 | 26.07497 | -80.16518 | 11 ft | 3 kts | 270° |
| 2026-05-03 23:53 | 26.07498 | -80.16549 | 11 ft | 3 kts | 271° |
| 2026-05-03 23:53 | 26.07498 | -80.16558 | 11 ft | 0 kts | 271° |
| 2026-05-03 23:55 | 26.07498 | -80.16563 | 11 ft | 1 kts | 270° |
| 2026-05-03 23:55 | 26.07498 | -80.16586 | 11 ft | 4 kts | 269° |
| 2026-05-03 23:56 | 26.07498 | -80.16612 | 11 ft | 2 kts | 277° |
| 2026-05-03 23:56 | 26.07501 | -80.16621 | 11 ft | 0 kts | 294° |
| 2026-05-03 23:58 | 26.07503 | -80.16627 | 11 ft | 2 kts | 296° |
| 2026-05-03 23:58 | 26.07512 | -80.16637 | 11 ft | 2 kts | 331° |
| 2026-05-03 23:58 | 26.07542 | -80.16644 | 11 ft | 2 kts | 359° |
| 2026-05-04 00:01 | 26.07547 | -80.16644 | 11 ft | 2 kts | 359° |
| 2026-05-04 00:01 | 26.07599 | -80.16644 | 11 ft | 3 kts | 1° |
| 2026-05-04 00:01 | 26.07604 | -80.16644 | 11 ft | 0 kts | 1° |
| 2026-05-04 00:02 | 26.07656 | -80.16642 | 11 ft | 13 kts | 1° |
| 2026-05-04 00:02 | 26.07693 | -80.16579 | 11 ft | 6 kts | 90° |
| 2026-05-04 00:03 | 26.07693 | -80.16576 | 11 ft | 0 kts | 90° |
| 2026-05-04 00:03 | 26.07693 | -80.16532 | 11 ft | 21 kts | 90° |
| 2026-05-04 00:03 | 26.07692 | -80.16086 | 11 ft | 100 kts | 90° |
| 2026-05-04 00:03 | 26.07687 | -80.15060 | 121 ft | 155 kts | 88° |
| 2026-05-04 00:04 | 26.07676 | -80.13813 | 683 ft | 171 kts | 89° |
| 2026-05-04 00:04 | 26.07634 | -80.12415 | 1113 ft | 198 kts | 88° |
| 2026-05-04 00:04 | 26.07703 | -80.10709 | 1101 ft | 248 kts | 85° |
| 2026-05-04 00:04 | 26.07749 | -80.08589 | 1078 ft | 305 kts | 88° |
| 2026-05-04 00:05 | 26.07765 | -80.06345 | 1633 ft | 313 kts | 88° |
| 2026-05-04 00:05 | 26.07803 | -80.03835 | 2620 ft | 334 kts | 88° |
| 2026-05-04 00:05 | 26.07840 | -80.01274 | 4102 ft | 336 kts | 89° |
| 2026-05-04 00:05 | 26.08190 | -79.98701 | 5667 ft | 333 kts | 72° |
| 2026-05-04 00:06 | 26.08774 | -79.96207 | 7166 ft | 332 kts | 85° |
| 2026-05-04 00:06 | 26.08755 | -79.93716 | 8601 ft | 329 kts | 94° |
| 2026-05-04 00:06 | 26.08421 | -79.91300 | 10012 ft | 323 kts | 112° |
| 2026-05-04 00:06 | 26.07636 | -79.88965 | 11198 ft | 330 kts | 108° |
| 2026-05-04 00:07 | 26.07195 | -79.86346 | 12104 ft | 347 kts | 99° |
| 2026-05-04 00:07 | 26.07212 | -79.83604 | 12540 ft | 338 kts | 83° |
| 2026-05-04 00:07 | 26.07366 | -79.81111 | 12615 ft | 326 kts | 101° |
| 2026-05-04 00:07 | 26.06666 | -79.78532 | 12941 ft | 364 kts | 112° |
| 2026-05-04 00:08 | 26.06024 | -79.75723 | 13819 ft | 388 kts | 103° |
| 2026-05-04 00:08 | 26.05431 | -79.72772 | 15196 ft | 392 kts | 107° |
| 2026-05-04 00:08 | 26.04777 | -79.69823 | 16491 ft | 400 kts | 105° |
| 2026-05-04 00:08 | 26.04133 | -79.66774 | 17498 ft | 415 kts | 105° |
| 2026-05-04 00:09 | 26.03425 | -79.63589 | 18589 ft | 426 kts | 107° |
| 2026-05-04 00:09 | 26.02663 | -79.60354 | 19882 ft | 431 kts | 107° |
| 2026-05-04 00:09 | 26.01906 | -79.57114 | 21013 ft | 440 kts | 107° |
| 2026-05-04 00:09 | 26.01117 | -79.53751 | 22077 ft | 450 kts | 108° |
| 2026-05-04 00:10 | 26.00327 | -79.50394 | 23148 ft | 458 kts | 108° |
| 2026-05-04 00:10 | 25.99499 | -79.46892 | 24202 ft | 467 kts | 108° |
| 2026-05-04 00:10 | 25.98685 | -79.43420 | 25261 ft | 475 kts | 108° |
| 2026-05-04 00:10 | 25.97863 | -79.39818 | 26354 ft | 483 kts | 106° |
| 2026-05-04 00:11 | 25.97261 | -79.36156 | 27322 ft | 494 kts | 103° |
| 2026-05-04 00:11 | 25.96692 | -79.32363 | 28280 ft | 502 kts | 104° |
| 2026-05-04 00:11 | 25.96102 | -79.28509 | 29375 ft | 506 kts | 104° |
| 2026-05-04 00:11 | 25.95518 | -79.24671 | 30712 ft | 503 kts | 104° |
| 2026-05-04 00:12 | 25.94946 | -79.20898 | 32345 ft | 493 kts | 104° |
| 2026-05-04 00:12 | 25.94393 | -79.17242 | 34108 ft | 481 kts | 105° |
| 2026-05-04 00:12 | 25.93836 | -79.13579 | 35173 ft | 486 kts | 104° |
| 2026-05-04 00:12 | 25.93249 | -79.09800 | 35843 ft | 498 kts | 105° |
| 2026-05-04 00:13 | 25.92660 | -79.05969 | 36805 ft | 502 kts | 105° |
| 2026-05-04 00:13 | 25.92094 | -79.02227 | 38089 ft | 498 kts | 104° |
| 2026-05-04 00:13 | 25.91520 | -78.98464 | 39143 ft | 499 kts | 105° |
| 2026-05-04 00:13 | 25.90924 | -78.94620 | 39932 ft | 504 kts | 104° |
| 2026-05-04 00:14 | 25.90321 | -78.90810 | 40705 ft | 509 kts | 104° |